Time;durP1;ratioP1;P1;durP2;ratioP2;P2;SDS_P1;SDS_P2;PMS_P1;PMS_P2;Temp;Humidity;BMP_temperature;BMP_pressure;BME280_temperature;BME280_humidity;BME280_pressure;Samples;Min_cycle;Max_cycle;Signal;HPM_P1;HPM_P2
2023/07/18 00:01:56;;;;;;;4.65;1.52;;;;;;;16.64;100.00;102055.09;10413687;28;20072;-72
2023/07/18 00:06:56;;;;;;;11.35;3.03;;;;;;;16.61;100.00;102044.59;10413459;28;20067;-72
2023/07/18 00:11:56;;;;;;;12.60;2.75;;;;;;;16.54;100.00;102039.09;10413931;28;20060;-72
2023/07/18 00:16:57;;;;;;;2.30;1.58;;;;;;;16.42;100.00;102036.16;10413510;28;20446;-72
2023/07/18 00:21:57;;;;;;;4.22;1.73;;;;;;;16.35;100.00;102037.19;10413941;28;20500;-72
2023/07/18 00:26:58;;;;;;;11.20;1.75;;;;;;;16.27;100.00;102035.47;10412633;28;20091;-72
2023/07/18 00:31:58;;;;;;;10.55;2.60;;;;;;;16.21;100.00;102030.88;10412401;28;20042;-72
2023/07/18 00:36:58;;;;;;;9.07;2.72;;;;;;;16.17;100.00;102037.78;10412757;28;20041;-72
2023/07/18 00:42:00;;;;;;;7.93;2.08;;;;;;;16.12;100.00;102030.22;10413404;28;20123;-72
2023/07/18 00:47:00;;;;;;;6.10;2.00;;;;;;;16.09;100.00;102038.84;10429157;28;20111;-71
2023/07/18 00:52:01;;;;;;;5.13;1.70;;;;;;;16.06;100.00;102032.94;10420755;28;20033;-72
2023/07/18 00:57:01;;;;;;;5.88;2.13;;;;;;;15.99;100.00;102044.69;10420953;28;20052;-72
2023/07/18 01:02:02;;;;;;;2.35;1.65;;;;;;;15.91;100.00;102038.56;10420575;28;20029;-72
2023/07/18 01:07:04;;;;;;;15.40;1.80;;;;;;;15.87;100.00;102029.94;10421127;28;20450;-72
2023/07/18 01:12:05;;;;;;;8.77;2.65;;;;;;;15.84;100.00;102027.63;10435692;28;20036;-72
2023/07/18 01:17:06;;;;;;;10.77;2.30;;;;;;;15.80;100.00;102020.88;10418875;28;20353;-72
2023/07/18 01:22:08;;;;;;;6.07;1.63;;;;;;;15.75;100.00;102023.38;10418484;28;20041;-72
2023/07/18 01:27:08;;;;;;;11.65;2.53;;;;;;;15.70;100.00;102015.81;10420503;28;20044;-72
2023/07/18 01:32:09;;;;;;;4.07;2.00;;;;;;;15.65;100.00;102017.44;10419673;28;20056;-72
2023/07/18 01:37:09;;;;;;;2.45;1.75;;;;;;;15.60;100.00;102015.28;10418327;28;20041;-72
2023/07/18 01:42:10;;;;;;;5.05;2.05;;;;;;;15.56;100.00;102001.22;10418324;28;20077;-72
2023/07/18 01:47:10;;;;;;;1.30;1.20;;;;;;;15.49;100.00;101983.97;10419235;28;20493;-72
2023/07/18 01:52:10;;;;;;;4.18;2.08;;;;;;;15.41;100.00;101997.81;10434516;28;20037;-72
2023/07/18 01:57:11;;;;;;;9.40;2.42;;;;;;;15.39;100.00;101993.59;10418317;28;20147;-72
2023/07/18 02:02:11;;;;;;;9.55;2.40;;;;;;;15.34;100.00;101994.19;10416863;28;20052;-72
2023/07/18 02:07:11;;;;;;;11.02;3.10;;;;;;;15.38;100.00;101990.03;10417987;28;20385;-72
2023/07/18 02:12:12;;;;;;;5.93;3.05;;;;;;;15.40;100.00;101989.81;10401303;28;20037;-72
2023/07/18 02:17:12;;;;;;;5.70;2.10;;;;;;;15.31;100.00;101989.97;10417559;28;20109;-72
2023/07/18 02:22:13;;;;;;;7.50;2.42;;;;;;;15.31;100.00;101986.41;10417177;28;20044;-72
2023/07/18 02:27:13;;;;;;;11.30;3.53;;;;;;;15.20;100.00;101981.53;10416541;28;20110;-72
2023/07/18 02:32:14;;;;;;;20.88;4.53;;;;;;;15.13;100.00;101981.50;10415076;28;20124;-72
2023/07/18 02:37:14;;;;;;;3.17;2.13;;;;;;;15.06;100.00;101988.78;10417981;28;20029;-71
2023/07/18 02:42:14;;;;;;;8.32;2.70;;;;;;;15.02;100.00;101980.16;10416768;28;20037;-72
2023/07/18 02:47:15;;;;;;;8.40;1.65;;;;;;;14.93;100.00;101977.78;10415841;28;20058;-71
2023/07/18 02:52:15;;;;;;;8.48;2.30;;;;;;;14.91;100.00;101983.44;10415942;28;20132;-72
2023/07/18 02:57:16;;;;;;;17.42;4.00;;;;;;;14.88;100.00;101990.16;10415498;28;20085;-72
2023/07/18 03:02:17;;;;;;;8.50;2.83;;;;;;;14.85;100.00;101990.53;10415515;28;20458;-72
2023/07/18 03:07:17;;;;;;;9.73;3.90;;;;;;;14.82;100.00;101985.47;10415570;28;20033;-72
2023/07/18 03:12:17;;;;;;;6.80;3.03;;;;;;;14.83;100.00;101987.16;10414762;28;20036;-72
2023/07/18 03:17:18;;;;;;;13.23;2.17;;;;;;;14.79;100.00;101982.31;10414347;28;20068;-72
2023/07/18 03:22:18;;;;;;;12.15;2.53;;;;;;;14.73;100.00;101981.22;10415236;28;20065;-72
2023/07/18 03:27:18;;;;;;;4.97;2.70;;;;;;;14.61;100.00;101980.06;10413201;28;20500;-72
2023/07/18 03:32:19;;;;;;;8.27;2.75;;;;;;;14.57;100.00;101985.09;10414409;28;20033;-72
2023/07/18 03:37:19;;;;;;;8.43;1.83;;;;;;;14.50;100.00;101986.03;10414363;28;20152;-72
2023/07/18 03:42:21;;;;;;;6.00;2.28;;;;;;;14.42;100.00;101984.28;10413782;28;20029;-71
2023/07/18 03:47:21;;;;;;;7.88;3.30;;;;;;;14.41;100.00;101988.91;10412513;28;20052;-71
2023/07/18 03:52:22;;;;;;;7.68;2.58;;;;;;;14.38;100.00;101985.72;10414000;28;20469;-72
2023/07/18 03:57:22;;;;;;;6.35;3.83;;;;;;;14.34;100.00;101990.72;10414315;28;20128;-72
2023/07/18 04:02:22;;;;;;;3.95;3.33;;;;;;;14.36;100.00;101990.56;10413255;28;20029;-72
2023/07/18 04:07:23;;;;;;;7.57;3.55;;;;;;;14.35;100.00;101989.69;10414568;28;20144;-72
2023/07/18 04:12:24;;;;;;;7.05;3.65;;;;;;;14.34;100.00;101988.00;10412640;28;20495;-72
2023/07/18 04:17:24;;;;;;;16.42;3.67;;;;;;;14.37;100.00;101986.78;10413267;28;20045;-72
2023/07/18 04:22:30;;;;;;;11.70;4.07;;;;;;;14.42;100.00;101982.44;10414906;28;20034;-72
2023/07/18 04:27:31;;;;;;;5.97;4.30;;;;;;;14.51;100.00;101983.13;10421624;28;20037;-72
2023/07/18 04:32:32;;;;;;;8.07;3.85;;;;;;;14.58;100.00;101975.88;10420855;28;20644;-72
2023/07/18 04:37:33;;;;;;;6.53;3.67;;;;;;;14.65;100.00;101965.88;10420816;28;20041;-72
2023/07/18 04:42:33;;;;;;;5.07;3.22;;;;;;;14.76;100.00;101963.63;10420956;28;20037;-72
2023/07/18 04:47:34;;;;;;;5.10;3.40;;;;;;;14.92;100.00;101959.75;10421304;28;20053;-71
2023/07/18 04:52:34;;;;;;;3.72;3.38;;;;;;;15.11;100.00;101959.84;10436381;28;20083;-72
2023/07/18 04:57:34;;;;;;;6.57;4.55;;;;;;;15.49;100.00;101956.66;10421987;28;20040;-72
2023/07/18 05:02:35;;;;;;;12.13;4.45;;;;;;;16.24;100.00;101948.44;10421235;28;20021;-72
2023/07/18 05:07:35;;;;;;;8.50;3.38;;;;;;;16.07;100.00;101938.97;10419612;28;20092;-72
2023/07/18 05:12:36;;;;;;;10.98;4.30;;;;;;;15.97;100.00;101940.22;10419728;28;20051;-72
2023/07/18 05:17:36;;;;;;;6.28;3.65;;;;;;;15.90;100.00;101946.75;10419014;28;20120;-72
2023/07/18 05:22:38;;;;;;;6.18;3.80;;;;;;;16.07;100.00;101941.72;10421030;28;20041;-72
2023/07/18 05:27:39;;;;;;;8.15;3.97;;;;;;;16.71;100.00;101955.56;10420018;28;20085;-72
2023/07/18 05:32:40;;;;;;;6.50;4.00;;;;;;;17.00;100.00;101956.19;10434021;28;20038;-72
2023/07/18 05:37:41;;;;;;;18.95;4.43;;;;;;;17.33;100.00;101949.78;10418161;28;20064;-72
2023/07/18 05:42:42;;;;;;;12.95;5.60;;;;;;;17.51;100.00;101952.63;10418553;28;20030;-72
2023/07/18 05:47:42;;;;;;;8.77;5.82;;;;;;;17.64;100.00;101963.53;10417186;28;20444;-72
2023/07/18 05:52:43;;;;;;;11.23;5.15;;;;;;;18.02;100.00;101961.84;10418079;28;20033;-72
2023/07/18 05:57:43;;;;;;;17.20;7.03;;;;;;;18.28;100.00;101956.19;10416613;28;20029;-72
2023/07/18 06:02:43;;;;;;;8.30;6.78;;;;;;;18.60;100.00;101961.59;10416579;28;20056;-72
2023/07/18 06:07:44;;;;;;;18.73;8.25;;;;;;;18.41;100.00;101974.44;10417019;28;20038;-72
2023/07/18 06:12:44;;;;;;;20.65;8.95;;;;;;;17.96;100.00;101981.91;10417318;28;20041;-72
2023/07/18 06:17:45;;;;;;;21.85;10.13;;;;;;;17.79;100.00;101981.59;10432684;28;20060;-72
2023/07/18 06:22:47;;;;;;;24.25;10.38;;;;;;;17.81;100.00;101991.28;10416160;28;20147;-72
2023/07/18 06:27:47;;;;;;;14.60;8.60;;;;;;;17.99;100.00;101992.44;10416806;28;20120;-72
2023/07/18 06:32:47;;;;;;;22.38;9.85;;;;;;;17.88;100.00;101994.00;10416487;28;20499;-72
2023/07/18 06:37:48;;;;;;;15.52;10.52;;;;;;;18.16;100.00;102001.84;10416717;28;20103;-72
2023/07/18 06:42:48;;;;;;;16.52;10.65;;;;;;;18.25;100.00;102002.38;10399473;28;20365;-72
2023/07/18 06:47:49;;;;;;;21.20;11.68;;;;;;;18.18;100.00;101996.94;10414363;28;20088;-71
2023/07/18 06:52:51;;;;;;;16.48;13.00;;;;;;;18.52;100.00;101984.69;10349879;28;20051;-73
2023/07/18 06:57:51;;;;;;;15.43;12.15;;;;;;;18.54;100.00;101984.47;10415916;28;20083;-75
2023/07/18 07:02:52;;;;;;;20.75;10.77;;;;;;;18.77;100.00;101984.69;10414624;28;20072;-72
2023/07/18 07:07:53;;;;;;;14.82;10.02;;;;;;;18.88;100.00;101974.88;10415281;28;20089;-73
2023/07/18 07:12:54;;;;;;;13.20;8.80;;;;;;;19.02;100.00;101972.84;10414561;28;20033;-73
2023/07/18 07:17:54;;;;;;;17.58;9.38;;;;;;;18.91;100.00;101977.16;10415539;28;20079;-72
2023/07/18 07:22:55;;;;;;;13.20;8.77;;;;;;;19.31;100.00;101973.16;10414064;28;20041;-71
2023/07/18 07:27:56;;;;;;;18.45;10.13;;;;;;;19.51;100.00;101980.06;10415059;28;20120;-71
2023/07/18 07:32:56;;;;;;;9.75;7.90;;;;;;;19.61;100.00;101979.50;10413771;28;20044;-72
2023/07/18 07:37:57;;;;;;;16.73;9.88;;;;;;;19.66;100.00;101978.88;10414355;28;20125;-72
2023/07/18 07:42:58;;;;;;;15.27;8.80;;;;;;;19.94;100.00;101981.00;10413931;28;20127;-72
2023/07/18 07:47:58;;;;;;;8.90;8.02;;;;;;;20.92;100.00;101963.09;10413664;28;20060;-72
2023/07/18 07:52:58;;;;;;;12.73;7.15;;;;;;;22.56;100.00;101960.75;10413229;28;20069;-72
2023/07/18 07:57:59;;;;;;;15.57;8.57;;;;;;;22.60;90.59;101967.47;10413910;28;20044;-72
2023/07/18 08:02:59;;;;;;;12.07;8.13;;;;;;;23.35;90.53;101961.38;10428599;28;20111;-72
2023/07/18 08:08:00;;;;;;;10.55;7.20;;;;;;;24.07;83.66;101956.66;10413602;28;20052;-72
2023/07/18 08:13:00;;;;;;;12.77;7.07;;;;;;;24.18;83.55;101975.00;10413930;28;20479;-72
2023/07/18 08:18:01;;;;;;;11.02;7.28;;;;;;;24.86;78.96;101958.69;10412217;28;20112;-72
2023/07/18 08:23:01;;;;;;;26.02;8.40;;;;;;;24.68;81.50;101964.66;10412667;28;20034;-73
2023/07/18 08:28:01;;;;;;;21.85;8.35;;;;;;;25.16;70.66;101966.34;10427759;28;20050;-72
2023/07/18 08:33:02;;;;;;;12.93;7.93;;;;;;;24.24;74.27;101962.88;10412444;28;20029;-72
2023/07/18 08:38:02;;;;;;;12.40;8.32;;;;;;;24.34;79.43;101957.44;10412898;28;20492;-72
2023/07/18 08:43:03;;;;;;;14.23;7.63;;;;;;;24.54;76.42;101953.22;10413059;28;20041;-72
2023/07/18 08:48:03;;;;;;;11.90;7.07;;;;;;;24.66;78.86;101951.06;10412560;28;20089;-72
2023/07/18 08:53:05;;;;;;;10.18;6.00;;;;;;;24.82;74.18;101955.63;10412153;28;20037;-72
2023/07/18 08:58:05;;;;;;;10.15;5.82;;;;;;;25.58;75.15;101948.75;10413259;28;20041;-72
2023/07/18 09:03:05;;;;;;;11.65;7.20;;;;;;;25.84;67.79;101946.06;10410462;28;20034;-72
2023/07/18 09:08:06;;;;;;;7.68;4.80;;;;;;;25.44;73.82;101930.97;10413987;28;20124;-72
2023/07/18 09:13:09;;;;;;;8.68;5.43;;;;;;;25.38;74.69;101934.84;10420780;28;20041;-72
2023/07/18 09:18:12;;;;;;;7.75;5.00;;;;;;;26.70;70.05;101941.66;10417875;28;20059;-72
2023/07/18 09:23:13;;;;;;;5.68;5.18;;;;;;;26.72;66.09;101928.31;10419324;28;20457;-72
2023/07/18 09:28:14;;;;;;;8.80;5.57;;;;;;;27.55;63.17;101922.16;10402520;28;20038;-72
2023/07/18 09:33:14;;;;;;;12.13;5.30;;;;;;;27.07;65.59;101911.53;10419982;28;20065;-72
2023/07/18 09:38:14;;;;;;;7.47;3.53;;;;;;;26.86;62.78;101910.75;10417185;28;20025;-72
2023/07/18 09:43:15;;;;;;;11.07;4.43;;;;;;;28.40;60.92;101912.63;10416595;28;20049;-72
2023/07/18 09:48:16;;;;;;;6.55;3.67;;;;;;;27.83;55.19;101911.44;10417071;28;20412;-72
2023/07/18 09:53:16;;;;;;;7.82;4.22;;;;;;;27.49;55.43;101907.44;10417778;28;20083;-72
2023/07/18 09:58:17;;;;;;;14.90;4.37;;;;;;;27.45;55.92;101906.38;10400468;28;20037;-72
2023/07/18 10:03:18;;;;;;;7.43;3.65;;;;;;;26.97;56.46;101897.66;10416619;28;20279;-72
2023/07/18 10:08:19;;;;;;;3.10;2.40;;;;;;;27.42;56.84;101895.81;10400237;28;20025;-72
2023/07/18 10:13:19;;;;;;;6.70;4.10;;;;;;;27.45;57.52;101884.09;10418371;28;20350;-72
2023/07/18 10:18:22;;;;;;;4.88;3.25;;;;;;;27.20;56.15;101865.59;10417054;28;20119;-72
2023/07/18 10:23:41;;;;;;;4.70;2.90;;;;;;;27.44;55.35;101854.63;10414252;28;20112;-72
2023/07/18 10:28:45;;;;;;;5.80;3.10;;;;;;;27.89;55.91;101858.22;10416708;28;20033;-72
2023/07/18 10:34:04;;;;;;;6.75;3.33;;;;;;;29.11;54.07;101847.72;10431821;28;20354;-75
2023/07/18 10:39:09;;;;;;;11.23;3.05;;;;;;;29.53;49.80;101840.41;10416092;28;20021;-73
2023/07/18 10:44:13;;;;;;;11.18;3.45;;;;;;;30.16;50.20;101850.28;10414890;28;20056;-74
2023/07/18 10:49:13;;;;;;;17.48;3.00;;;;;;;29.56;54.25;101837.03;10399210;28;20481;-75
2023/07/18 10:54:15;;;;;;;12.07;4.15;;;;;;;28.38;55.44;101848.00;10415450;28;20045;-75
2023/07/18 10:59:20;;;;;;;3.58;2.72;;;;;;;27.46;56.31;101835.69;10415081;28;20137;-76
2023/07/18 11:04:24;;;;;;;2.40;2.28;;;;;;;29.96;51.92;101833.88;10415648;28;20555;-76
2023/07/18 11:09:25;;;;;;;3.63;2.65;;;;;;;31.26;48.20;101825.09;10414096;28;20072;-76
2023/07/18 11:14:37;;;;;;;5.68;2.72;;;;;;;30.64;46.76;101824.78;10414638;28;20486;-74
2023/07/18 11:19:38;;;;;;;3.53;2.72;;;;;;;30.66;48.97;101807.69;10399120;28;20045;-71
2023/07/18 11:24:40;;;;;;;4.22;3.03;;;;;;;31.46;46.64;101803.41;10414907;28;20108;-71
2023/07/18 11:29:53;;;;;;;1.67;1.58;;;;;;;31.68;43.92;101809.00;10414554;28;20044;-72
2023/07/18 11:35:00;;;;;;;3.38;2.22;;;;;;;32.23;46.02;101795.81;10413069;28;20053;-71
2023/07/18 11:40:01;;;;;;;7.63;1.60;;;;;;;30.57;51.17;101814.03;10413220;28;20075;-71
2023/07/18 11:45:01;;;;;;;2.92;1.92;;;;;;;30.66;47.34;101802.09;10428841;28;20082;-71
2023/07/18 11:50:02;;;;;;;2.28;2.05;;;;;;;29.25;47.45;101794.81;10412084;28;20089;-71
2023/07/18 11:55:02;;;;;;;1.23;1.00;;;;;;;30.88;46.13;101792.97;10413313;28;20132;-71
2023/07/18 12:00:04;;;;;;;1.63;1.52;;;;;;;29.79;48.89;101798.16;10413752;28;20036;-70
2023/07/18 12:05:06;;;;;;;3.40;1.85;;;;;;;28.51;49.13;101788.81;10412347;28;20040;-70
2023/07/18 12:10:07;;;;;;;5.43;1.35;;;;;;;27.86;49.90;101782.81;10428123;28;20029;-70
2023/07/18 12:15:08;;;;;;;4.70;2.03;;;;;;;29.72;45.73;101783.75;10412827;28;20105;-70
2023/07/18 12:20:09;;;;;;;10.98;2.35;;;;;;;31.06;45.45;101777.19;10396390;28;20033;-70
2023/07/18 12:25:10;;;;;;;2.78;1.70;;;;;;;32.45;39.90;101783.72;10411762;28;20138;-71
2023/07/18 12:30:12;;;;;;;8.85;2.13;;;;;;;30.78;43.25;101772.50;10412802;28;20049;-71
2023/07/18 12:35:14;;;;;;;1.50;1.50;;;;;;;29.02;46.31;101781.78;10412632;28;20133;-72
2023/07/18 12:40:17;;;;;;;3.70;2.17;;;;;;;28.09;46.98;101764.50;10412993;28;20040;-70
2023/07/18 12:45:18;;;;;;;2.10;2.00;;;;;;;28.29;47.88;101764.25;10415264;28;20458;-71
2023/07/18 12:50:19;;;;;;;2.00;1.80;;;;;;;28.43;49.17;101753.25;10421146;28;20057;-74
2023/07/18 12:55:19;;;;;;;2.88;2.15;;;;;;;27.56;49.23;101754.91;10420496;28;20408;-76
2023/07/18 13:00:20;;;;;;;10.82;2.50;;;;;;;26.99;50.33;101742.53;10418201;28;20037;-75
2023/07/18 13:05:20;;;;;;;3.70;1.85;;;;;;;28.34;47.01;101741.09;10435965;28;20037;-77
2023/07/18 13:10:21;;;;;;;1.17;1.10;;;;;;;29.41;47.42;101740.41;10419499;28;20040;-75
2023/07/18 13:15:21;;;;;;;3.03;1.50;;;;;;;30.52;45.67;101737.81;10418375;28;20125;-76
2023/07/18 13:20:22;;;;;;;2.92;2.13;;;;;;;29.61;46.84;101738.44;10418346;28;20041;-77
2023/07/18 13:25:22;;;;;;;2.58;2.08;;;;;;;28.39;46.98;101727.91;10418810;28;20037;-76
2023/07/18 13:30:23;;;;;;;12.82;2.00;;;;;;;27.40;48.02;101725.56;10418334;28;20116;-71
2023/07/18 13:35:24;;;;;;;1.52;1.42;;;;;;;28.78;44.92;101712.94;10419218;28;20043;-77
2023/07/18 13:40:24;;;;;;;3.10;1.73;;;;;;;29.83;43.83;101709.84;10418821;28;20116;-76
2023/07/18 13:45:24;;;;;;;1.38;1.35;;;;;;;30.27;44.28;101708.44;10417071;28;20032;-76
2023/07/18 13:50:25;;;;;;;8.15;2.53;;;;;;;30.36;43.26;101703.78;10417069;28;20106;-76
2023/07/18 13:55:25;;;;;;;2.60;1.60;;;;;;;30.41;42.65;101705.63;10416887;28;20033;-76
2023/07/18 14:00:26;;;;;;;2.15;1.88;;;;;;;30.14;44.31;101704.47;10401513;28;20029;-77
2023/07/18 14:05:27;;;;;;;2.45;1.80;;;;;;;30.06;43.85;101696.84;10417169;28;20124;-76
2023/07/18 14:10:27;;;;;;;5.20;1.70;;;;;;;29.20;44.19;101674.94;10416823;28;20104;-75
2023/07/18 14:15:28;;;;;;;2.42;1.90;;;;;;;29.02;44.90;101673.84;10399696;28;20029;-76
2023/07/18 14:20:28;;;;;;;3.05;1.42;;;;;;;29.47;43.51;101671.41;10416213;28;20470;-75
2023/07/18 14:25:29;;;;;;;1.42;1.33;;;;;;;29.20;42.74;101680.53;10417803;28;20037;-72
2023/07/18 14:30:29;;;;;;;1.60;1.45;;;;;;;29.13;44.02;101668.91;10416330;28;20056;-72
2023/07/18 14:35:31;;;;;;;1.05;1.00;;;;;;;28.71;43.84;101670.66;10417094;28;20109;-72
2023/07/18 14:40:31;;;;;;;3.13;1.67;;;;;;;28.44;44.42;101663.81;10416653;28;20029;-72
2023/07/18 14:45:31;;;;;;;1.65;1.55;;;;;;;28.32;45.20;101668.94;10416145;28;20121;-72
2023/07/18 14:50:32;;;;;;;1.65;1.50;;;;;;;28.03;45.65;101666.25;10414319;28;20115;-72
2023/07/18 14:55:32;;;;;;;1.27;1.00;;;;;;;28.56;44.95;101676.44;10414655;28;20033;-72
2023/07/18 15:00:33;;;;;;;1.95;1.67;;;;;;;28.22;44.79;101672.69;10415110;28;20461;-72
2023/07/18 15:05:34;;;;;;;1.15;1.05;;;;;;;27.75;44.33;101657.63;10413578;28;20365;-72
2023/07/18 15:10:34;;;;;;;5.75;1.40;;;;;;;27.71;43.57;101658.53;10414726;28;20034;-72
2023/07/18 15:15:35;;;;;;;1.20;1.15;;;;;;;26.64;45.41;101654.66;10414959;28;20029;-72
2023/07/18 15:20:36;;;;;;;2.58;1.65;;;;;;;26.06;45.02;101646.88;10414759;28;20057;-72
2023/07/18 15:25:36;;;;;;;0.75;0.75;;;;;;;25.94;45.54;101649.13;10415297;28;20033;-71
2023/07/18 15:30:37;;;;;;;1.50;1.40;;;;;;;25.63;46.17;101654.75;10413691;28;20029;-72
2023/07/18 15:35:37;;;;;;;6.35;2.30;;;;;;;25.39;46.23;101648.94;10414092;28;20456;-72
2023/07/18 15:40:38;;;;;;;1.42;1.33;;;;;;;25.57;46.43;101635.63;10415228;28;20068;-72
2023/07/18 15:45:38;;;;;;;2.33;1.85;;;;;;;25.34;47.18;101645.38;10412673;28;20117;-72
2023/07/18 15:50:39;;;;;;;1.25;1.02;;;;;;;24.94;47.48;101636.72;10414621;28;20059;-72
2023/07/18 15:55:40;;;;;;;3.22;1.10;;;;;;;24.65;48.00;101644.75;10413635;28;20500;-72
2023/07/18 16:00:41;;;;;;;3.13;1.35;;;;;;;24.51;48.21;101624.22;10412966;28;20474;-72
2023/07/18 16:05:41;;;;;;;2.15;1.70;;;;;;;24.47;48.32;101634.16;10411896;28;20116;-72
2023/07/18 16:10:41;;;;;;;1.88;1.77;;;;;;;23.90;48.32;101622.88;10412695;28;20025;-72
2023/07/18 16:15:43;;;;;;;2.58;1.50;;;;;;;23.78;48.51;101618.66;10412520;28;20095;-72
2023/07/18 16:20:44;;;;;;;3.13;1.83;;;;;;;24.11;48.37;101601.66;10412247;28;20038;-72
2023/07/18 16:25:44;;;;;;;2.17;1.40;;;;;;;24.39;48.14;101590.38;10411549;28;20224;-72
2023/07/18 16:30:45;;;;;;;2.75;1.58;;;;;;;24.29;47.74;101580.94;10412772;28;20090;-72
2023/07/18 16:35:47;;;;;;;2.03;1.42;;;;;;;24.02;47.68;101591.38;10412466;28;20117;-72
2023/07/18 16:40:47;;;;;;;0.70;0.70;;;;;;;23.80;48.21;101578.59;10413950;28;20048;-72
2023/07/18 16:45:50;;;;;;;1.58;1.33;;;;;;;23.49;48.54;101582.25;10413369;28;20393;-72
2023/07/18 16:50:51;;;;;;;3.63;1.45;;;;;;;23.34;48.77;101583.81;10411412;28;20061;-72
2023/07/18 16:55:52;;;;;;;1.67;1.40;;;;;;;23.31;48.71;101587.09;10412649;28;20113;-71
2023/07/18 17:00:52;;;;;;;3.78;1.98;;;;;;;23.32;48.88;101572.19;10411733;28;20068;-72
2023/07/18 17:05:53;;;;;;;1.95;1.15;;;;;;;23.26;49.15;101576.03;10412186;28;20037;-71
2023/07/18 17:10:53;;;;;;;1.05;1.05;;;;;;;23.15;49.03;101579.81;10411531;28;20540;-71
2023/07/18 17:15:53;;;;;;;1.65;1.55;;;;;;;22.99;49.20;101573.34;10411598;28;20041;-72
2023/07/18 17:20:54;;;;;;;2.97;1.48;;;;;;;22.96;49.13;101574.69;10393939;28;20060;-71
2023/07/18 17:25:56;;;;;;;6.82;1.48;;;;;;;22.91;49.43;101566.34;10427396;28;20105;-71
2023/07/18 17:30:57;;;;;;;3.20;1.90;;;;;;;22.78;49.54;101552.97;10415012;28;20045;-71
2023/07/18 17:35:57;;;;;;;2.70;1.33;;;;;;;22.57;49.62;101562.19;10419609;28;20060;-71
2023/07/18 17:40:58;;;;;;;1.42;1.38;;;;;;;22.30;49.93;101565.75;10416798;28;20029;-72
2023/07/18 17:45:59;;;;;;;2.38;2.20;;;;;;;22.08;50.16;101562.19;10417857;28;20041;-72
2023/07/18 17:50:59;;;;;;;1.30;1.20;;;;;;;21.89;50.38;101570.81;10417112;28;20042;-71
2023/07/18 17:56:00;;;;;;;9.02;6.45;;;;;;;21.75;50.54;101569.50;10433485;28;20041;-71
2023/07/18 18:01:01;;;;;;;2.83;2.63;;;;;;;21.68;50.55;101568.88;10433136;28;20461;-71
2023/07/18 18:06:01;;;;;;;2.00;1.80;;;;;;;21.62;50.58;101567.97;10418039;28;20037;-71
2023/07/18 18:11:02;;;;;;;2.17;2.05;;;;;;;21.59;50.53;101563.78;10416004;28;20041;-71
2023/07/18 18:16:03;;;;;;;4.43;1.70;;;;;;;21.56;50.47;101555.19;10417051;28;20516;-71
2023/07/18 18:21:03;;;;;;;2.83;2.05;;;;;;;21.45;50.82;101554.25;10433544;28;20476;-72
2023/07/18 18:26:04;;;;;;;2.90;2.15;;;;;;;21.39;50.85;101532.38;10431765;28;20036;-71
2023/07/18 18:31:04;;;;;;;2.95;1.98;;;;;;;21.15;51.95;101524.28;10415972;28;20473;-71
2023/07/18 18:36:05;;;;;;;3.40;2.25;;;;;;;20.78;53.26;101524.00;10415031;28;20106;-71
2023/07/18 18:41:05;;;;;;;2.42;1.88;;;;;;;20.60;55.34;101514.91;10414507;28;20495;-71
2023/07/18 18:46:06;;;;;;;1.83;1.73;;;;;;;20.48;55.34;101519.59;10414552;28;20393;-71
2023/07/18 18:51:06;;;;;;;16.13;1.80;;;;;;;20.31;56.25;101500.34;10415686;28;20458;-71
2023/07/18 18:56:06;;;;;;;2.40;1.70;;;;;;;20.15;56.72;101501.13;10416235;28;20041;-71
2023/07/18 19:01:07;;;;;;;0.93;0.70;;;;;;;20.01;56.26;101510.78;10416106;28;20454;-71
2023/07/18 19:06:07;;;;;;;13.27;1.42;;;;;;;19.96;56.24;101504.09;10414919;28;20044;-71
2023/07/18 19:11:08;;;;;;;3.30;1.77;;;;;;;19.81;58.05;101500.19;10416036;28;20099;-71
2023/07/18 19:16:10;;;;;;;1.00;1.00;;;;;;;19.74;58.35;101495.69;10413499;28;20040;-71
2023/07/18 19:21:10;;;;;;;5.25;1.65;;;;;;;19.67;58.90;101484.00;10414928;28;20037;-71
2023/07/18 19:26:10;;;;;;;2.72;1.38;;;;;;;19.53;59.98;101496.31;10412602;28;20405;-71
2023/07/18 19:31:11;;;;;;;5.30;1.88;;;;;;;18.98;60.24;101497.56;10413880;28;20199;-71
2023/07/18 19:36:11;;;;;;;1.80;1.52;;;;;;;18.86;60.10;101493.16;10429131;28;20040;-71
2023/07/18 19:41:12;;;;;;;2.05;1.20;;;;;;;18.75;60.11;101495.66;10413579;28;20064;-71
2023/07/18 19:46:12;;;;;;;4.28;1.50;;;;;;;18.54;61.66;101499.78;10414504;28;20136;-71
2023/07/18 19:51:12;;;;;;;3.60;1.48;;;;;;;18.34;63.06;101500.09;10412172;28;20061;-72
2023/07/18 19:56:13;;;;;;;2.15;1.58;;;;;;;18.19;66.24;101488.75;10412507;28;20048;-71
2023/07/18 20:01:14;;;;;;;1.35;1.25;;;;;;;18.03;66.54;101494.88;10413923;28;20043;-71
2023/07/18 20:06:14;;;;;;;3.28;2.70;;;;;;;17.94;68.50;101501.75;10413546;28;20082;-71
2023/07/18 20:11:15;;;;;;;6.40;2.25;;;;;;;17.95;71.17;101497.94;10410802;28;20045;-71
2023/07/18 20:16:15;;;;;;;6.57;2.40;;;;;;;18.00;71.99;101511.78;10413657;28;20056;-72
2023/07/18 20:21:16;;;;;;;6.35;2.60;;;;;;;18.13;73.00;101503.38;10428480;28;20041;-71
2023/07/18 20:26:16;;;;;;;9.40;2.22;;;;;;;18.19;75.23;101502.44;10413367;28;20075;-71
2023/07/18 20:31:16;;;;;;;1.75;1.63;;;;;;;18.21;75.20;101489.31;10414086;28;20041;-72
2023/07/18 20:36:17;;;;;;;6.22;2.35;;;;;;;18.18;77.77;101489.78;10413163;28;20452;-71
2023/07/18 20:41:17;;;;;;;3.38;1.75;;;;;;;18.18;78.71;101476.09;10412854;28;20029;-71
2023/07/18 20:46:18;;;;;;;3.38;2.67;;;;;;;18.18;78.17;101481.56;10414230;28;20037;-71
2023/07/18 20:51:18;;;;;;;2.83;1.77;;;;;;;18.16;78.91;101477.41;10413334;28;20085;-72
2023/07/18 20:56:19;;;;;;;2.13;1.95;;;;;;;18.09;80.91;101469.25;10412467;28;20545;-72
2023/07/18 21:01:20;;;;;;;1.38;1.38;;;;;;;18.07;81.65;101465.94;10412359;28;20107;-71
2023/07/18 21:06:21;;;;;;;7.03;2.08;;;;;;;18.07;80.90;101466.78;10432088;28;20037;-71
2023/07/18 21:11:21;;;;;;;2.53;2.30;;;;;;;18.04;81.76;101472.72;10421100;28;20438;-71
2023/07/18 21:16:22;;;;;;;4.53;2.08;;;;;;;18.03;81.96;101467.47;10420018;28;20033;-71
2023/07/18 21:21:22;;;;;;;2.00;1.85;;;;;;;18.03;82.33;101467.47;10419128;28;20029;-72
2023/07/18 21:26:23;;;;;;;2.15;1.75;;;;;;;18.00;83.37;101457.81;10421200;28;20045;-72
2023/07/18 21:31:23;;;;;;;3.70;1.83;;;;;;;17.97;83.58;101458.28;10419446;28;20037;-71
2023/07/18 21:36:24;;;;;;;5.95;1.73;;;;;;;18.00;83.62;101462.47;10417176;28;20029;-71
2023/07/18 21:41:24;;;;;;;2.17;1.83;;;;;;;18.02;83.54;101457.56;10434291;28;20105;-71
2023/07/18 21:46:25;;;;;;;11.45;2.25;;;;;;;18.05;83.88;101455.19;10418689;28;20033;-72
2023/07/18 21:51:25;;;;;;;2.67;2.10;;;;;;;18.07;83.91;101463.19;10417930;28;20056;-71
2023/07/18 21:56:26;;;;;;;1.90;1.55;;;;;;;18.11;86.01;101461.66;10418814;28;20381;-72
2023/07/18 22:01:26;;;;;;;9.07;2.38;;;;;;;18.14;84.50;101469.41;10419364;28;20033;-72
2023/07/18 22:06:27;;;;;;;6.40;2.85;;;;;;;18.11;84.03;101465.22;10419947;28;20033;-72
2023/07/18 22:11:27;;;;;;;6.93;2.80;;;;;;;18.08;84.67;101460.22;10433135;28;20045;-72
2023/07/18 22:16:28;;;;;;;3.08;1.77;;;;;;;18.12;84.61;101455.09;10418114;28;20036;-72
2023/07/18 22:21:28;;;;;;;6.57;2.70;;;;;;;18.17;85.47;101451.66;10417509;28;20033;-72
2023/07/18 22:26:29;;;;;;;3.33;2.17;;;;;;;18.21;84.88;101444.63;10418767;28;20037;-72
2023/07/18 22:31:29;;;;;;;1.77;1.67;;;;;;;18.24;84.73;101441.44;10417127;28;20121;-71
2023/07/18 22:36:29;;;;;;;2.38;2.08;;;;;;;18.24;84.41;101447.75;10416918;28;20034;-71
2023/07/18 22:41:30;;;;;;;1.63;1.50;;;;;;;18.28;85.25;101443.47;10417223;28;20365;-71
2023/07/18 22:46:31;;;;;;;1.77;1.67;;;;;;;18.34;85.14;101431.53;10416287;28;20029;-72
2023/07/18 22:51:31;;;;;;;3.80;2.45;;;;;;;18.36;84.60;101426.66;10417233;28;20092;-72